createdAt,value
2017-12-30T00:00:13.143Z,9.43
2017-12-30T00:02:41.415Z,9.20
2017-12-30T00:05:09.679Z,10.30
2017-12-30T00:07:37.178Z,9.63
2017-12-30T00:10:04.694Z,10.43
2017-12-30T00:12:32.970Z,10.15
2017-12-30T00:15:00.467Z,8.82
2017-12-30T00:17:28.086Z,9.30
2017-12-30T00:19:55.579Z,9.00
2017-12-30T00:22:23.075Z,9.40
2017-12-30T00:24:50.583Z,8.80
2017-12-30T00:27:18.845Z,8.20
2017-12-30T00:29:47.106Z,9.00
2017-12-30T00:32:14.602Z,9.00
2017-12-30T00:34:42.102Z,9.73
2017-12-30T00:37:09.617Z,9.57
2017-12-30T00:39:37.123Z,10.82
2017-12-30T00:42:04.638Z,10.35
2017-12-30T00:44:32.143Z,10.50
2017-12-30T00:46:59.639Z,9.10
2017-12-30T00:49:27.914Z,9.65
2017-12-30T00:51:56.166Z,8.85
2017-12-30T00:54:23.745Z,8.73
2017-12-30T00:56:52.021Z,7.62
2017-12-30T00:59:20.290Z,8.35
2017-12-30T01:01:47.787Z,7.20
2017-12-30T01:04:15.274Z,6.97
2017-12-30T01:06:42.775Z,9.32
2017-12-30T01:09:11.060Z,8.15
2017-12-30T01:11:39.334Z,8.55
2017-12-30T01:14:07.610Z,8.95
2017-12-30T01:16:35.878Z,8.70
2017-12-30T01:19:04.146Z,8.65
2017-12-30T01:21:31.647Z,8.77
2017-12-30T01:23:59.154Z,8.32
2017-12-30T01:26:26.644Z,7.75
2017-12-30T01:28:54.920Z,7.93
2017-12-30T01:31:23.194Z,7.35
2017-12-30T01:33:51.466Z,6.95
2017-12-30T01:36:19.726Z,8.43
2017-12-30T01:38:47.222Z,8.40
2017-12-30T01:41:14.735Z,7.70
2017-12-30T01:43:42.995Z,7.37
2017-12-30T01:46:10.486Z,6.75
2017-12-30T01:48:50.632Z,7.03
2017-12-30T01:51:18.139Z,6.60
2017-12-30T01:53:45.627Z,6.55
2017-12-30T01:56:13.118Z,6.50
2017-12-30T01:58:41.395Z,6.47
2017-12-30T02:01:09.647Z,5.72
2017-12-30T02:03:37.143Z,6.43
2017-12-30T02:06:04.643Z,5.32
2017-12-30T02:08:32.135Z,5.85
2017-12-30T02:11:00.407Z,6.80
2017-12-30T02:13:27.899Z,6.57
2017-12-30T02:15:55.407Z,6.90
2017-12-30T02:18:22.899Z,7.65
2017-12-30T02:20:51.163Z,8.40
2017-12-30T02:23:19.428Z,8.02
2017-12-30T02:25:46.926Z,7.75
2017-12-30T02:28:14.426Z,6.97
2017-12-30T02:30:41.910Z,6.60
2017-12-30T02:33:09.398Z,7.40
2017-12-30T02:35:36.910Z,6.72
2017-12-30T02:38:04.394Z,7.00
2017-12-30T02:40:32.662Z,6.85
2017-12-30T02:43:00.927Z,6.60
2017-12-30T02:45:28.443Z,6.55
2017-12-30T02:47:55.931Z,6.05
2017-12-30T02:50:23.421Z,6.32
2017-12-30T02:52:51.674Z,5.35
2017-12-30T02:55:19.166Z,5.43
2017-12-30T02:57:47.419Z,5.35
2017-12-30T03:00:14.926Z,4.90
2017-12-30T03:02:42.422Z,5.55
2017-12-30T03:05:09.906Z,5.15
2017-12-30T03:07:38.382Z,5.50
2017-12-30T03:10:06.638Z,5.32
2017-12-30T03:12:34.126Z,4.60
2017-12-30T03:15:02.399Z,6.05
2017-12-30T03:17:30.651Z,4.95
2017-12-30T03:19:58.334Z,4.28
2017-12-30T03:22:26.590Z,3.95
2017-12-30T03:24:54.076Z,3.00
2017-12-30T03:27:22.330Z,3.25
2017-12-30T03:29:49.843Z,2.95
2017-12-30T03:32:17.334Z,3.22
2017-12-30T03:34:44.831Z,3.80
2017-12-30T03:37:12.323Z,3.47
2017-12-30T03:39:39.826Z,3.00
2017-12-30T03:42:08.210Z,3.03
2017-12-30T03:44:36.466Z,3.17
2017-12-30T03:47:03.966Z,2.97
2017-12-30T03:49:31.482Z,3.28
2017-12-30T03:51:58.970Z,3.60
2017-12-30T03:54:26.490Z,2.85
2017-12-30T03:56:54.190Z,2.70
2017-12-30T03:59:22.446Z,2.95
2017-12-30T04:01:49.959Z,3.72
2017-12-30T04:04:17.455Z,3.00
2017-12-30T04:06:44.943Z,2.70
2017-12-30T04:09:13.211Z,3.47
2017-12-30T04:11:41.466Z,3.10
2017-12-30T04:14:08.955Z,3.42
2017-12-30T04:16:37.398Z,3.75
2017-12-30T04:19:04.891Z,3.33
2017-12-30T04:21:33.146Z,3.08
2017-12-30T04:24:01.419Z,3.15
2017-12-30T04:26:28.927Z,2.85
2017-12-30T04:28:56.434Z,3.15
2017-12-30T04:31:23.930Z,3.00
2017-12-30T04:33:51.426Z,2.62
2017-12-30T04:36:18.918Z,2.85
2017-12-30T04:38:47.206Z,2.95
2017-12-30T04:41:15.466Z,3.60
2017-12-30T04:43:42.963Z,3.60
2017-12-30T04:46:10.467Z,3.30
2017-12-30T04:48:37.956Z,3.25
2017-12-30T04:51:06.218Z,2.95
2017-12-30T04:53:33.716Z,2.60
2017-12-30T04:56:01.202Z,2.92
2017-12-30T04:58:28.802Z,3.15
2017-12-30T05:00:57.071Z,2.80
2017-12-30T05:03:24.562Z,3.15
2017-12-30T05:05:52.167Z,2.85
2017-12-30T05:08:19.670Z,3.10
2017-12-30T05:10:47.942Z,3.10
2017-12-30T05:13:15.472Z,2.58
2017-12-30T05:15:42.987Z,2.85
2017-12-30T05:18:10.490Z,3.33
2017-12-30T05:20:38.170Z,2.40
2017-12-30T05:23:06.431Z,3.37
2017-12-30T05:25:33.939Z,2.92
2017-12-30T05:28:01.431Z,3.20
2017-12-30T05:30:28.926Z,2.87
2017-12-30T05:32:57.185Z,2.70
2017-12-30T05:35:24.684Z,2.60
2017-12-30T05:37:52.174Z,2.47
2017-12-30T05:40:19.670Z,2.62
2017-12-30T05:42:47.922Z,3.20
2017-12-30T05:45:15.414Z,2.10
2017-12-30T05:47:43.682Z,2.60
2017-12-30T05:50:11.954Z,3.00
2017-12-30T05:52:40.207Z,3.10
2017-12-30T05:55:07.898Z,2.78
2017-12-30T05:57:36.151Z,3.22
2017-12-30T06:00:03.659Z,3.12
2017-12-30T06:02:31.158Z,2.03
2017-12-30T06:04:58.646Z,2.30
2017-12-30T06:07:26.899Z,3.28
2017-12-30T06:09:54.402Z,2.50
2017-12-30T06:12:21.911Z,2.50
2017-12-30T06:14:49.419Z,2.72
2017-12-30T06:17:16.910Z,2.60
2017-12-30T06:19:44.623Z,3.03
2017-12-30T06:22:12.902Z,3.10
2017-12-30T06:24:41.159Z,2.95
2017-12-30T06:27:08.646Z,2.65
2017-12-30T06:29:36.910Z,2.97
2017-12-30T06:32:05.170Z,2.90
2017-12-30T06:34:32.671Z,3.25
2017-12-30T06:37:00.166Z,2.95
2017-12-30T06:39:27.666Z,2.90
2017-12-30T06:41:55.922Z,2.78
2017-12-30T06:44:23.410Z,2.50
2017-12-30T06:46:50.895Z,2.80
2017-12-30T06:49:18.382Z,3.20
2017-12-30T06:51:45.887Z,3.37
2017-12-30T06:54:13.395Z,3.28
2017-12-30T06:56:40.882Z,3.70
2017-12-30T06:59:09.150Z,3.40
2017-12-30T07:01:36.647Z,4.53
2017-12-30T07:04:04.278Z,3.95
2017-12-30T07:06:32.559Z,4.20
2017-12-30T07:09:00.823Z,5.70
2017-12-30T07:11:28.326Z,4.18
2017-12-30T07:13:55.818Z,4.70
2017-12-30T07:16:23.316Z,4.32
2017-12-30T07:18:51.584Z,4.30
2017-12-30T07:21:19.854Z,4.97
2017-12-30T07:23:48.124Z,5.25
2017-12-30T07:26:16.386Z,6.10
2017-12-30T07:28:43.881Z,6.18
2017-12-30T07:31:12.140Z,4.85
2017-12-30T07:33:40.399Z,6.40
2017-12-30T07:36:07.886Z,5.20
2017-12-30T07:38:36.150Z,4.60
2017-12-30T07:41:04.423Z,5.15
2017-12-30T07:43:32.682Z,5.40
2017-12-30T07:46:00.177Z,4.10
2017-12-30T07:48:28.434Z,4.45
2017-12-30T07:50:56.686Z,4.40
2017-12-30T07:53:24.191Z,4.25
2017-12-30T07:55:51.692Z,4.30
2017-12-30T07:58:19.190Z,3.80
2017-12-30T08:00:47.570Z,3.40
2017-12-30T08:03:15.096Z,3.67
2017-12-30T08:05:42.586Z,3.22
2017-12-30T08:08:10.844Z,4.68
2017-12-30T08:10:38.334Z,4.82
2017-12-30T08:13:05.830Z,3.87
2017-12-30T08:15:33.322Z,4.10
2017-12-30T08:18:00.816Z,4.10
2017-12-30T08:20:28.323Z,4.55
2017-12-30T08:22:55.840Z,25.45
2017-12-30T08:25:23.346Z,17.52
2017-12-30T08:27:50.846Z,7.07
2017-12-30T08:30:18.423Z,6.43
2017-12-30T08:32:45.908Z,4.60
2017-12-30T08:35:13.398Z,4.97
2017-12-30T08:37:41.658Z,5.05
2017-12-30T08:40:09.167Z,4.82
2017-12-30T08:42:36.686Z,4.90
2017-12-30T08:45:04.184Z,5.87
2017-12-30T08:47:31.692Z,5.00
2017-12-30T08:49:59.190Z,4.82
2017-12-30T08:52:26.685Z,5.55
2017-12-30T08:54:54.187Z,5.28
2017-12-30T08:57:22.439Z,4.87
2017-12-30T08:59:49.926Z,5.55
2017-12-30T09:02:18.190Z,6.28
2017-12-30T09:04:45.696Z,8.05
2017-12-30T09:07:13.202Z,8.40
2017-12-30T09:09:40.810Z,7.62
2017-12-30T09:12:08.302Z,7.50
2017-12-30T09:14:35.790Z,7.40
2017-12-30T09:17:04.049Z,7.12
2017-12-30T09:19:31.539Z,7.62
2017-12-30T09:21:59.142Z,6.62
2017-12-30T09:24:26.630Z,7.40
2017-12-30T09:26:55.646Z,6.60
2017-12-30T09:29:23.902Z,7.05
2017-12-30T09:31:51.396Z,7.25
2017-12-30T09:34:18.900Z,8.13
2017-12-30T09:36:46.416Z,10.52
2017-12-30T09:39:13.908Z,7.15
2017-12-30T09:41:41.599Z,7.03
2017-12-30T09:44:09.091Z,5.43
2017-12-30T09:46:36.594Z,5.62
2017-12-30T09:49:04.291Z,5.50
2017-12-30T09:51:31.802Z,5.75
2017-12-30T09:53:59.295Z,5.90
2017-12-30T09:56:26.787Z,5.70
2017-12-30T09:58:54.282Z,5.40
2017-12-30T10:01:21.794Z,6.35
2017-12-30T10:03:49.316Z,5.37
2017-12-30T10:06:17.839Z,7.15
2017-12-30T10:08:45.395Z,5.50
2017-12-30T10:11:13.662Z,5.30
2017-12-30T10:13:41.927Z,4.80
2017-12-30T10:16:10.204Z,4.53
2017-12-30T10:18:38.463Z,5.10
2017-12-30T10:21:05.978Z,5.22
2017-12-30T10:23:33.474Z,5.35
2017-12-30T10:26:01.045Z,6.05
2017-12-30T10:28:28.524Z,6.10
2017-12-30T10:30:56.811Z,6.18
2017-12-30T10:33:24.362Z,7.25
2017-12-30T10:35:52.629Z,8.30
2017-12-30T10:38:20.944Z,9.57
2017-12-30T10:40:48.444Z,5.80
2017-12-30T10:43:15.956Z,6.65
2017-12-30T10:45:43.450Z,4.75
2017-12-30T10:48:10.946Z,7.47
2017-12-30T10:50:39.211Z,6.80
2017-12-30T10:53:07.494Z,8.40
2017-12-30T10:55:35.755Z,7.72
2017-12-30T10:58:03.270Z,13.95
2017-12-30T11:00:36.543Z,12.45
2017-12-30T11:03:04.071Z,10.30
2017-12-30T11:05:31.571Z,11.18
2017-12-30T11:07:59.073Z,7.05
2017-12-30T11:10:26.595Z,7.55
2017-12-30T11:12:54.107Z,7.47
2017-12-30T11:15:22.397Z,8.20
2017-12-30T11:17:50.658Z,8.48
2017-12-30T11:20:18.169Z,5.43
2017-12-30T11:22:45.663Z,4.57
2017-12-30T11:25:13.182Z,4.25
2017-12-30T11:27:40.710Z,3.83
2017-12-30T11:30:08.977Z,4.40
2017-12-30T11:32:37.271Z,3.80
2017-12-30T11:35:04.897Z,3.55
2017-12-30T11:37:33.902Z,3.08
2017-12-30T11:40:02.195Z,4.18
2017-12-30T11:42:30.459Z,3.70
2017-12-30T11:44:58.742Z,3.92
2017-12-30T11:47:27.016Z,4.07
2017-12-30T11:49:55.292Z,4.45
2017-12-30T11:52:23.599Z,4.18
2017-12-30T11:54:51.120Z,4.03
2017-12-30T11:57:19.410Z,4.47
2017-12-30T11:59:47.693Z,4.93
2017-12-30T12:02:15.627Z,4.70
2017-12-30T12:04:43.137Z,5.35
2017-12-30T12:07:10.798Z,4.93
2017-12-30T12:09:38.286Z,5.15
2017-12-30T12:12:05.875Z,4.37
2017-12-30T12:14:33.448Z,3.90
2017-12-30T12:17:01.718Z,5.45
2017-12-30T12:19:29.988Z,5.22
2017-12-30T12:21:57.522Z,4.03
2017-12-30T12:24:25.035Z,4.40
2017-12-30T12:26:52.572Z,4.82
2017-12-30T12:29:20.840Z,4.32
2017-12-30T12:31:48.352Z,3.97
2017-12-30T12:34:15.839Z,4.37
2017-12-30T12:36:43.387Z,4.65
2017-12-30T12:39:10.948Z,4.35
2017-12-30T12:41:38.462Z,4.20
2017-12-30T12:44:05.958Z,3.42
2017-12-30T12:46:33.455Z,23.00
2017-12-30T12:49:01.740Z,27.40
2017-12-30T12:51:30.010Z,26.30
2017-12-30T12:53:58.267Z,4.15
2017-12-30T12:56:25.793Z,4.20
2017-12-30T12:58:53.287Z,3.42
2017-12-30T13:01:20.799Z,3.40
2017-12-30T13:03:48.303Z,2.75
2017-12-30T13:06:15.806Z,3.70
2017-12-30T13:08:43.309Z,2.90
2017-12-30T13:11:10.819Z,3.45
2017-12-30T13:13:38.312Z,2.83
2017-12-30T13:16:05.813Z,3.28
2017-12-30T13:18:34.082Z,3.15
2017-12-30T13:21:01.578Z,3.25
2017-12-30T13:23:29.080Z,2.87
2017-12-30T13:25:57.344Z,2.80
2017-12-30T13:28:24.838Z,2.90
2017-12-30T13:30:53.318Z,3.17
2017-12-30T13:33:21.574Z,3.62
2017-12-30T13:35:49.066Z,3.70
2017-12-30T13:38:17.322Z,4.22
2017-12-30T13:40:45.008Z,4.25
2017-12-30T13:43:12.572Z,3.53
2017-12-30T13:45:40.070Z,3.12
2017-12-30T13:48:07.794Z,2.53
2017-12-30T13:50:35.291Z,2.60
2017-12-30T13:53:02.792Z,2.80
2017-12-30T13:55:31.050Z,3.40
2017-12-30T13:57:59.343Z,2.45
2017-12-30T14:00:27.622Z,2.35
2017-12-30T14:02:55.878Z,3.15
2017-12-30T14:05:23.403Z,3.80
2017-12-30T14:07:50.902Z,2.83
2017-12-30T14:10:18.391Z,3.30
2017-12-30T14:12:45.941Z,2.90
2017-12-30T14:15:13.483Z,3.47
2017-12-30T14:17:40.978Z,3.78
2017-12-30T14:20:08.490Z,3.72
2017-12-30T14:22:35.978Z,3.65
2017-12-30T14:25:03.471Z,4.40
2017-12-30T14:27:30.998Z,3.90
2017-12-30T14:29:58.529Z,3.83
2017-12-30T14:32:26.024Z,4.10
2017-12-30T14:34:53.544Z,3.60
2017-12-30T14:37:21.055Z,3.75
2017-12-30T14:39:48.557Z,3.50
2017-12-30T14:42:16.072Z,3.33
2017-12-30T14:44:43.571Z,4.80
2017-12-30T14:47:11.094Z,4.25
2017-12-30T14:49:38.642Z,4.70
2017-12-30T14:52:06.211Z,4.45
2017-12-30T14:54:33.745Z,4.47
2017-12-30T14:57:01.319Z,4.32
2017-12-30T14:59:28.819Z,4.75
2017-12-30T15:01:56.610Z,5.45
2017-12-30T15:04:24.884Z,4.20
2017-12-30T15:06:53.197Z,5.05
2017-12-30T15:09:20.700Z,5.60
2017-12-30T15:11:48.203Z,5.05
2017-12-30T15:14:15.720Z,5.22
2017-12-30T15:16:43.210Z,4.90
2017-12-30T15:19:11.470Z,4.30
2017-12-30T15:21:39.730Z,4.18
2017-12-30T15:24:07.219Z,4.85
2017-12-30T15:26:35.476Z,4.20
2017-12-30T15:29:03.744Z,4.78
2017-12-30T15:31:31.249Z,5.78
2017-12-30T15:33:58.755Z,4.28
2017-12-30T15:36:26.242Z,4.82
2017-12-30T15:38:54.720Z,3.62
2017-12-30T15:41:22.979Z,4.60
2017-12-30T15:43:51.243Z,7.20
2017-12-30T15:46:18.751Z,5.70
2017-12-30T15:48:46.340Z,5.75
2017-12-30T15:51:13.838Z,5.32
2017-12-30T15:53:42.098Z,4.45
2017-12-30T15:56:09.587Z,4.87
2017-12-30T15:58:37.850Z,5.03
2017-12-30T16:01:06.124Z,6.28
2017-12-30T16:03:34.389Z,11.07
2017-12-30T16:06:03.394Z,8.35
2017-12-30T16:08:31.887Z,5.22
2017-12-30T16:11:00.146Z,5.10
2017-12-30T16:13:27.658Z,4.70
2017-12-30T16:15:55.166Z,4.72
2017-12-30T16:18:23.427Z,4.70
2017-12-30T16:20:50.915Z,4.85
2017-12-30T16:23:19.175Z,6.25
2017-12-30T16:25:47.450Z,5.85
2017-12-30T16:28:14.958Z,6.70
2017-12-30T16:30:42.447Z,6.05
2017-12-30T16:33:09.934Z,6.50
2017-12-30T16:35:38.198Z,6.05
2017-12-30T16:38:05.718Z,7.43
2017-12-30T16:40:33.206Z,7.57
2017-12-30T16:43:01.613Z,5.80
2017-12-30T16:45:29.866Z,6.40
2017-12-30T16:47:57.362Z,7.65
2017-12-30T16:50:24.858Z,5.85
2017-12-30T16:52:52.367Z,8.13
2017-12-30T16:55:20.623Z,6.10
2017-12-30T16:57:48.114Z,8.05
2017-12-30T17:00:15.606Z,7.55
2017-12-30T17:02:43.114Z,6.12
2017-12-30T17:05:11.402Z,7.05
2017-12-30T17:07:38.911Z,7.20
2017-12-30T17:10:06.426Z,7.45
2017-12-30T17:12:33.918Z,8.50
2017-12-30T17:15:01.419Z,7.45
2017-12-30T17:17:29.676Z,8.10
2017-12-30T17:19:57.164Z,8.68
2017-12-30T17:22:24.670Z,7.05
2017-12-30T17:24:52.158Z,8.55
2017-12-30T17:27:20.414Z,7.72
2017-12-30T17:29:47.924Z,8.57
2017-12-30T17:32:15.430Z,8.23
2017-12-30T17:34:42.951Z,9.57
2017-12-30T17:37:10.455Z,9.68
2017-12-30T17:39:37.947Z,7.90
2017-12-30T17:42:06.218Z,7.70
2017-12-30T17:44:34.475Z,10.90
2017-12-30T17:47:01.978Z,8.43
2017-12-30T17:49:29.479Z,9.02
2017-12-30T17:51:56.967Z,8.32
2017-12-30T17:54:25.251Z,7.95
2017-12-30T17:56:52.752Z,7.68
2017-12-30T17:59:20.266Z,7.50
2017-12-30T18:01:48.518Z,8.00
2017-12-30T18:04:16.008Z,8.10
2017-12-30T18:06:43.518Z,8.93
2017-12-30T18:09:11.007Z,8.07
2017-12-30T18:11:39.270Z,8.85
2017-12-30T18:14:06.771Z,9.48
2017-12-30T18:16:34.258Z,8.32
2017-12-30T18:19:01.958Z,8.57
2017-12-30T18:21:30.222Z,8.52
2017-12-30T18:23:57.728Z,9.40
2017-12-30T18:26:25.226Z,9.10
2017-12-30T18:28:53.526Z,11.50
2017-12-30T18:31:21.787Z,9.93
2017-12-30T18:33:49.306Z,9.23
2017-12-30T18:36:16.819Z,18.23
2017-12-30T18:38:45.105Z,21.15
2017-12-30T18:41:13.367Z,9.98
2017-12-30T18:43:41.632Z,12.23
2017-12-30T18:46:09.151Z,25.80
2017-12-30T18:48:36.659Z,12.15
2017-12-30T18:51:04.156Z,8.43
2017-12-30T18:53:31.654Z,21.90
2017-12-30T18:55:59.156Z,24.58
2017-12-30T18:58:27.450Z,12.02
2017-12-30T19:00:54.946Z,8.90
2017-12-30T19:03:22.648Z,6.10
2017-12-30T19:05:50.916Z,13.68
2017-12-30T19:08:19.191Z,19.00
2017-12-30T19:10:47.475Z,16.23
2017-12-30T19:13:15.790Z,27.05
2017-12-30T19:15:43.334Z,35.28
2017-12-30T19:18:10.976Z,37.08
2017-12-30T19:20:38.655Z,35.15
2017-12-30T19:23:06.223Z,41.47
2017-12-30T19:25:33.743Z,16.62
2017-12-30T19:28:02.010Z,9.07
2017-12-30T19:30:29.550Z,9.10
2017-12-30T19:32:57.136Z,24.67
2017-12-30T19:35:25.522Z,23.60
2017-12-30T19:37:53.129Z,17.30
2017-12-30T19:40:20.634Z,13.02
2017-12-30T19:42:48.940Z,13.15
2017-12-30T19:45:16.510Z,9.82
2017-12-30T19:47:44.067Z,14.35
2017-12-30T19:50:11.647Z,15.80
2017-12-30T19:52:39.213Z,12.18
2017-12-30T19:55:06.939Z,9.13
2017-12-30T19:57:34.454Z,10.02
2017-12-30T20:00:02.017Z,9.95
2017-12-30T20:02:29.619Z,11.88
2017-12-30T20:04:57.226Z,15.30
2017-12-30T20:07:24.761Z,14.43
2017-12-30T20:09:52.294Z,14.60
2017-12-30T20:12:19.979Z,13.98
2017-12-30T20:14:47.643Z,12.10
2017-12-30T20:17:15.258Z,11.93
2017-12-30T20:19:43.610Z,7.30
2017-12-30T20:22:11.174Z,6.62
2017-12-30T20:24:38.896Z,6.30
2017-12-30T20:27:06.572Z,6.15
2017-12-30T20:29:34.120Z,5.70
2017-12-30T20:32:01.870Z,6.82
2017-12-30T20:34:29.414Z,6.35
2017-12-30T20:36:57.775Z,6.10
2017-12-30T20:39:25.346Z,5.28
2017-12-30T20:41:52.881Z,5.50
2017-12-30T20:44:20.403Z,5.70
2017-12-30T20:46:47.957Z,4.20
2017-12-30T20:49:15.515Z,5.20
2017-12-30T20:51:43.285Z,5.50
2017-12-30T20:54:10.796Z,5.15
2017-12-30T20:56:38.328Z,4.35
2017-12-30T20:59:05.965Z,4.95
2017-12-30T21:01:33.498Z,4.68
2017-12-30T21:04:01.784Z,4.05
2017-12-30T21:06:29.307Z,3.95
2017-12-30T21:08:58.079Z,4.28
2017-12-30T21:11:25.578Z,9.93
2017-12-30T21:13:53.862Z,5.82
2017-12-30T21:16:21.414Z,4.90
2017-12-30T21:18:48.951Z,4.75
2017-12-30T21:21:16.478Z,9.55
2017-12-30T21:23:43.987Z,7.15
2017-12-30T21:26:12.307Z,6.87
2017-12-30T21:28:39.817Z,8.68
2017-12-30T21:31:08.102Z,6.62
2017-12-30T21:33:36.378Z,6.15
2017-12-30T21:36:04.647Z,4.90
2017-12-30T21:38:32.935Z,8.10
2017-12-30T21:41:01.231Z,6.70
2017-12-30T21:43:28.748Z,4.62
2017-12-30T21:45:57.035Z,5.03
2017-12-30T21:48:25.298Z,4.80
2017-12-30T21:50:52.802Z,6.55
2017-12-30T21:53:20.318Z,5.53
2017-12-30T21:55:47.806Z,6.50
2017-12-30T21:58:15.310Z,6.65
2017-12-30T22:00:42.800Z,6.40
2017-12-30T22:03:11.063Z,6.70
2017-12-30T22:05:39.361Z,7.80
2017-12-30T22:08:07.666Z,8.13
2017-12-30T22:10:35.162Z,6.62
2017-12-30T22:13:02.669Z,8.10
2017-12-30T22:15:30.180Z,10.70
2017-12-30T22:17:57.669Z,7.30
2017-12-30T22:20:25.932Z,7.35
2017-12-30T22:22:53.423Z,8.43
2017-12-30T22:25:20.939Z,12.25
2017-12-30T22:27:48.427Z,8.70
2017-12-30T22:30:16.686Z,9.63
2017-12-30T22:32:44.171Z,7.93
2017-12-30T22:35:11.814Z,10.13
2017-12-30T22:37:40.082Z,7.18
2017-12-30T22:40:08.342Z,8.02
2017-12-30T22:42:35.859Z,10.75
2017-12-30T22:45:03.356Z,8.23
2017-12-30T22:47:32.366Z,7.07
2017-12-30T22:50:00.643Z,6.95
2017-12-30T22:52:28.135Z,7.32
2017-12-30T22:54:55.630Z,8.73
2017-12-30T22:57:23.128Z,9.48
2017-12-30T22:59:51.402Z,8.75
2017-12-30T23:02:19.659Z,8.55
2017-12-30T23:04:47.151Z,8.20
2017-12-30T23:07:15.424Z,7.50
2017-12-30T23:09:43.690Z,7.25
2017-12-30T23:12:11.946Z,7.37
2017-12-30T23:14:39.629Z,8.82
2017-12-30T23:17:07.910Z,8.85
2017-12-30T23:19:36.388Z,8.18
2017-12-30T23:22:04.658Z,8.38
2017-12-30T23:24:32.914Z,7.12
2017-12-30T23:27:00.536Z,8.45
2017-12-30T23:29:28.049Z,9.60
2017-12-30T23:31:55.551Z,8.27
2017-12-30T23:34:23.066Z,8.45
2017-12-30T23:36:51.332Z,8.80
2017-12-30T23:39:20.330Z,8.65
2017-12-30T23:41:47.839Z,8.80
2017-12-30T23:44:15.323Z,8.10
2017-12-30T23:46:42.819Z,9.75
2017-12-30T23:49:11.099Z,9.27
2017-12-30T23:51:39.358Z,9.80
2017-12-30T23:54:07.632Z,9.02
2017-12-30T23:56:35.146Z,9.98
2017-12-30T23:59:02.638Z,8.90
